createdAt,value
2023-01-19T00:00:29.300Z,5.18
2023-01-19T00:02:56.347Z,5.00
2023-01-19T00:05:22.888Z,5.03
2023-01-19T00:07:49.421Z,4.95
2023-01-19T00:10:16.311Z,5.00
2023-01-19T00:12:42.936Z,4.50
2023-01-19T00:15:10.038Z,5.20
2023-01-19T00:17:36.601Z,5.03
2023-01-19T00:20:04.014Z,4.22
2023-01-19T00:22:30.658Z,4.65
2023-01-19T00:24:57.453Z,4.78
2023-01-19T00:27:24.923Z,4.38
2023-01-19T00:29:51.531Z,4.20
2023-01-19T00:32:18.101Z,4.50
2023-01-19T00:34:49.486Z,4.78
2023-01-19T00:37:17.368Z,4.60
2023-01-19T00:39:44.962Z,4.70
2023-01-19T00:42:31.492Z,4.50
2023-01-19T00:44:58.233Z,4.75
2023-01-19T00:47:25.132Z,4.47
2023-01-19T00:49:51.581Z,4.28
2023-01-19T00:52:18.044Z,4.00
2023-01-19T00:54:44.492Z,4.20
2023-01-19T00:57:11.174Z,4.10
2023-01-19T00:59:37.662Z,4.05
2023-01-19T01:02:04.570Z,4.38
2023-01-19T01:04:31.244Z,3.90
2023-01-19T01:06:57.762Z,3.83
2023-01-19T01:09:24.493Z,3.53
2023-01-19T01:11:51.000Z,3.60
2023-01-19T01:14:18.262Z,4.25
2023-01-19T01:16:45.093Z,3.83
2023-01-19T01:19:11.652Z,3.70
2023-01-19T01:21:38.146Z,3.92
2023-01-19T01:24:05.125Z,4.28
2023-01-19T01:26:31.805Z,3.35
2023-01-19T01:28:58.308Z,3.95
2023-01-19T01:31:25.088Z,3.85
2023-01-19T01:33:51.601Z,3.92
2023-01-19T01:36:19.064Z,3.95
2023-01-19T01:38:45.615Z,3.58
2023-01-19T01:41:12.489Z,3.50
2023-01-19T01:44:25.370Z,3.40
2023-01-19T01:46:52.108Z,3.28
2023-01-19T01:49:18.745Z,3.53
2023-01-19T01:51:49.802Z,3.30
2023-01-19T01:54:23.405Z,3.30
2023-01-19T01:56:52.649Z,3.33
2023-01-19T01:59:30.191Z,2.95
2023-01-19T02:02:18.506Z,3.10
2023-01-19T02:04:59.803Z,3.30
2023-01-19T02:08:00.539Z,3.33
2023-01-19T02:10:46.003Z,3.47
2023-01-19T02:13:22.620Z,3.30
2023-01-19T02:15:52.551Z,3.25
2023-01-19T02:18:21.530Z,3.20
2023-01-19T02:20:56.463Z,3.10
2023-01-19T02:23:46.658Z,3.30
2023-01-19T02:26:16.990Z,2.90
2023-01-19T02:28:48.332Z,2.88
2023-01-19T02:31:15.284Z,3.20
2023-01-19T02:33:42.161Z,2.80
2023-01-19T02:36:11.595Z,2.83
2023-01-19T02:38:39.280Z,3.15
2023-01-19T02:41:07.982Z,3.00
2023-01-19T02:43:36.166Z,2.90
2023-01-19T02:46:03.401Z,2.60
2023-01-19T02:48:30.527Z,2.83
2023-01-19T02:51:04.157Z,2.83
2023-01-19T02:53:33.314Z,2.78
2023-01-19T02:56:27.536Z,3.05
2023-01-19T02:59:16.164Z,2.50
2023-01-19T03:01:51.832Z,2.85
2023-01-19T03:04:28.999Z,2.72
2023-01-19T03:06:59.807Z,2.42
2023-01-19T03:09:41.365Z,2.33
2023-01-19T03:12:43.745Z,2.42
2023-01-19T03:15:30.667Z,2.70
2023-01-19T03:18:00.175Z,2.58
2023-01-19T03:20:28.912Z,2.70
2023-01-19T03:23:02.983Z,2.47
2023-01-19T03:25:34.503Z,2.88
2023-01-19T03:28:02.401Z,2.75
2023-01-19T03:30:35.143Z,2.28
2023-01-19T03:33:09.508Z,2.28
2023-01-19T03:35:41.694Z,2.63
2023-01-19T03:38:14.675Z,2.20
2023-01-19T03:43:08.831Z,2.10
2023-01-19T03:45:39.134Z,2.30
2023-01-19T03:48:06.652Z,2.40
2023-01-19T03:50:33.439Z,2.15
2023-01-19T03:53:10.747Z,2.35
2023-01-19T03:55:40.605Z,2.47
2023-01-19T03:58:07.323Z,2.00
2023-01-19T04:00:36.563Z,2.53
2023-01-19T04:03:05.260Z,2.28
2023-01-19T04:05:32.041Z,2.08
2023-01-19T04:07:58.885Z,2.33
2023-01-19T04:10:25.480Z,1.98
2023-01-19T04:12:58.903Z,2.20
2023-01-19T04:15:26.462Z,2.05
2023-01-19T04:17:53.068Z,2.10
2023-01-19T04:20:20.079Z,2.10
2023-01-19T04:22:46.688Z,2.35
2023-01-19T04:25:13.158Z,2.10
2023-01-19T04:27:39.709Z,2.20
2023-01-19T04:30:06.903Z,2.13
2023-01-19T04:32:33.442Z,2.08
2023-01-19T04:34:59.927Z,2.08
2023-01-19T04:37:26.473Z,2.25
2023-01-19T04:39:53.048Z,1.92
2023-01-19T04:42:19.710Z,2.22
2023-01-19T04:44:46.742Z,1.90
2023-01-19T04:47:13.279Z,1.90
2023-01-19T04:49:40.216Z,1.90
2023-01-19T04:52:06.821Z,2.30
2023-01-19T04:54:33.495Z,2.20
2023-01-19T04:57:00.235Z,1.80
2023-01-19T04:59:26.698Z,1.95
2023-01-19T05:01:53.342Z,2.22
2023-01-19T05:04:19.847Z,1.83
2023-01-19T05:06:46.464Z,1.80
2023-01-19T05:09:15.186Z,2.00
2023-01-19T05:11:41.675Z,2.03
2023-01-19T05:14:08.196Z,1.75
2023-01-19T05:16:35.322Z,1.63
2023-01-19T05:19:01.787Z,1.77
2023-01-19T05:21:28.459Z,2.00
2023-01-19T05:23:54.953Z,2.20
2023-01-19T05:26:21.462Z,1.88
2023-01-19T05:28:47.950Z,2.22
2023-01-19T05:31:14.489Z,1.80
2023-01-19T05:33:41.292Z,2.05
2023-01-19T05:36:07.941Z,1.80
2023-01-19T05:38:35.639Z,1.90
2023-01-19T05:41:02.735Z,1.88
2023-01-19T05:43:29.379Z,1.70
2023-01-19T05:45:56.085Z,1.55
2023-01-19T05:48:23.878Z,1.80
2023-01-19T05:50:50.380Z,1.70
2023-01-19T05:53:17.336Z,1.65
2023-01-19T05:55:44.534Z,2.28
2023-01-19T05:58:11.063Z,1.90
2023-01-19T06:00:37.570Z,2.17
2023-01-19T06:03:06.411Z,1.75
2023-01-19T06:05:33.028Z,1.75
2023-01-19T06:07:59.742Z,2.00
2023-01-19T06:10:26.291Z,1.98
2023-01-19T06:12:53.207Z,1.45
2023-01-19T06:15:19.918Z,1.80
2023-01-19T06:17:46.467Z,1.50
2023-01-19T06:20:14.139Z,1.85
2023-01-19T06:22:40.682Z,1.50
2023-01-19T06:25:07.621Z,1.77
2023-01-19T06:27:34.101Z,1.63
2023-01-19T06:30:00.601Z,1.50
2023-01-19T06:32:27.242Z,1.63
2023-01-19T06:34:54.217Z,1.58
2023-01-19T06:37:20.970Z,1.45
2023-01-19T06:39:47.568Z,1.52
2023-01-19T06:42:14.366Z,1.58
2023-01-19T06:44:47.319Z,1.35
2023-01-19T06:49:42.857Z,1.50
2023-01-19T06:52:11.442Z,1.50
2023-01-19T06:54:38.261Z,1.60
2023-01-19T06:57:04.796Z,1.42
2023-01-19T06:59:31.927Z,1.20
2023-01-19T07:01:59.224Z,1.70
2023-01-19T07:04:27.029Z,1.35
2023-01-19T07:06:53.632Z,1.38
2023-01-19T07:09:20.473Z,1.20
2023-01-19T07:11:48.422Z,1.25
2023-01-19T07:14:15.608Z,1.38
2023-01-19T07:16:42.849Z,1.40
2023-01-19T07:19:10.831Z,1.30
2023-01-19T07:21:37.540Z,1.20
2023-01-19T07:24:04.077Z,1.30
2023-01-19T07:26:30.892Z,1.27
2023-01-19T07:28:57.417Z,1.27
2023-01-19T07:31:24.304Z,1.27
2023-01-19T07:33:51.027Z,1.30
2023-01-19T07:36:17.682Z,1.10
2023-01-19T07:38:44.189Z,1.20
2023-01-19T07:41:11.177Z,1.20
2023-01-19T07:43:37.791Z,0.98
2023-01-19T07:46:08.304Z,1.30
2023-01-19T07:48:34.968Z,1.35
2023-01-19T07:51:11.093Z,1.40
2023-01-19T07:53:39.973Z,1.20
2023-01-19T07:56:07.692Z,1.40
2023-01-19T07:58:34.253Z,1.30
2023-01-19T08:01:00.806Z,1.08
2023-01-19T08:03:27.330Z,1.20
2023-01-19T08:05:53.874Z,0.93
2023-01-19T08:08:20.451Z,1.08
2023-01-19T08:10:50.411Z,1.00
2023-01-19T08:13:16.982Z,1.20
2023-01-19T08:15:43.521Z,1.20
2023-01-19T08:18:11.499Z,1.08
2023-01-19T08:20:38.054Z,1.38
2023-01-19T08:23:05.437Z,1.20
2023-01-19T08:25:34.203Z,1.20
2023-01-19T08:28:01.484Z,1.08
2023-01-19T08:30:28.278Z,1.15
2023-01-19T08:32:57.981Z,1.10
2023-01-19T08:35:24.584Z,1.15
2023-01-19T08:37:51.193Z,1.10
2023-01-19T08:40:18.415Z,1.10
2023-01-19T08:42:45.403Z,1.10
2023-01-19T08:45:12.227Z,1.20
2023-01-19T08:47:38.787Z,1.08
2023-01-19T08:50:05.594Z,0.90
2023-01-19T08:52:32.060Z,0.95
2023-01-19T08:54:58.524Z,1.08
2023-01-19T08:57:25.079Z,1.30
2023-01-19T08:59:51.601Z,1.02
2023-01-19T09:02:18.214Z,1.10
2023-01-19T09:04:44.684Z,1.30
2023-01-19T09:07:11.175Z,1.38
2023-01-19T09:09:39.684Z,0.90
2023-01-19T09:12:06.271Z,0.93
2023-01-19T09:14:32.786Z,1.08
2023-01-19T09:16:59.419Z,1.20
2023-01-19T09:19:26.200Z,1.00
2023-01-19T09:21:54.787Z,1.10
2023-01-19T09:24:21.309Z,1.10
2023-01-19T09:26:47.953Z,1.20
2023-01-19T09:29:14.397Z,0.90
2023-01-19T09:31:41.133Z,1.20
2023-01-19T09:34:07.925Z,1.15
2023-01-19T09:36:36.617Z,0.80
2023-01-19T09:39:03.910Z,1.00
2023-01-19T09:41:33.817Z,1.33
2023-01-19T09:44:01.051Z,1.00
2023-01-19T09:46:37.397Z,1.00
2023-01-19T09:49:17.816Z,0.93
2023-01-19T09:51:48.355Z,0.77
2023-01-19T09:54:39.170Z,0.90
2023-01-19T09:57:11.081Z,1.10
2023-01-19T09:59:38.851Z,1.08
2023-01-19T10:02:11.554Z,1.20
2023-01-19T10:04:41.679Z,1.05
2023-01-19T10:07:23.414Z,1.02
2023-01-19T10:10:01.479Z,1.10
2023-01-19T10:12:41.497Z,1.10
2023-01-19T10:15:35.528Z,1.10
2023-01-19T10:18:07.777Z,0.93
2023-01-19T10:20:47.009Z,1.00
2023-01-19T10:23:48.646Z,1.20
2023-01-19T10:26:27.087Z,0.90
2023-01-19T10:28:57.747Z,0.90
2023-01-19T10:31:25.024Z,1.20
2023-01-19T10:33:52.755Z,1.00
2023-01-19T10:36:25.860Z,0.80
2023-01-19T10:38:52.412Z,0.75
2023-01-19T10:41:31.774Z,0.82
2023-01-19T10:44:03.547Z,1.10
2023-01-19T10:46:43.376Z,1.10
2023-01-19T10:49:26.676Z,0.95
2023-01-19T10:51:54.821Z,0.90
2023-01-19T10:54:22.184Z,1.02
2023-01-19T10:56:57.855Z,0.98
2023-01-19T10:59:46.676Z,0.80
2023-01-19T11:02:19.423Z,1.00
2023-01-19T11:07:20.756Z,0.90
2023-01-19T11:09:48.572Z,1.05
2023-01-19T11:12:23.768Z,1.00
2023-01-19T11:14:51.749Z,0.93
2023-01-19T11:17:25.386Z,0.90
2023-01-19T11:20:02.846Z,1.00
2023-01-19T11:22:33.099Z,1.13
2023-01-19T11:25:04.902Z,1.00
2023-01-19T11:27:36.189Z,1.10
2023-01-19T11:30:19.314Z,1.00
2023-01-19T11:35:33.187Z,1.10
2023-01-19T11:38:11.835Z,0.95
2023-01-19T11:40:39.083Z,0.90
2023-01-19T11:43:05.853Z,1.15
2023-01-19T11:45:34.731Z,1.13
2023-01-19T11:48:04.701Z,1.08
2023-01-19T11:50:57.526Z,1.00
2023-01-19T11:53:29.130Z,1.00
2023-01-19T11:55:59.566Z,0.90
2023-01-19T11:58:26.833Z,1.00
2023-01-19T12:01:24.756Z,0.90
2023-01-19T12:04:06.674Z,1.00
2023-01-19T12:06:35.742Z,1.20
2023-01-19T12:09:13.134Z,0.90
2023-01-19T12:12:04.018Z,0.90
2023-01-19T12:14:40.920Z,1.00
2023-01-19T12:17:15.289Z,1.02
2023-01-19T12:19:54.966Z,0.85
2023-01-19T12:22:23.795Z,1.10
2023-01-19T12:24:54.331Z,0.95
2023-01-19T12:27:38.863Z,0.88
2023-01-19T12:30:10.609Z,0.90
2023-01-19T12:32:37.420Z,0.98
2023-01-19T12:35:04.985Z,0.88
2023-01-19T12:37:36.595Z,0.80
2023-01-19T12:40:24.972Z,1.00
2023-01-19T12:42:56.213Z,1.00
2023-01-19T12:45:25.715Z,0.82
2023-01-19T12:47:56.208Z,1.05
2023-01-19T12:50:25.801Z,0.70
2023-01-19T12:53:02.630Z,0.90
2023-01-19T12:55:39.119Z,0.95
2023-01-19T12:58:12.806Z,0.77
2023-01-19T13:00:44.701Z,1.00
2023-01-19T13:03:16.924Z,1.00
2023-01-19T13:05:43.444Z,0.88
2023-01-19T13:08:09.859Z,0.90
2023-01-19T13:11:05.016Z,0.90
2023-01-19T13:13:57.692Z,0.85
2023-01-19T13:16:51.004Z,1.00
2023-01-19T13:19:22.102Z,0.90
2023-01-19T13:21:49.609Z,1.00
2023-01-19T13:24:20.851Z,0.90
2023-01-19T13:26:50.291Z,0.73
2023-01-19T13:29:37.945Z,0.95
2023-01-19T13:32:18.399Z,0.80
2023-01-19T13:34:50.389Z,0.80
2023-01-19T13:37:23.123Z,0.90
2023-01-19T13:39:53.377Z,0.90
2023-01-19T13:42:29.297Z,0.90
2023-01-19T13:44:59.871Z,0.88
2023-01-19T13:47:39.728Z,0.75
2023-01-19T13:50:07.004Z,1.02
2023-01-19T13:52:33.518Z,0.90
2023-01-19T13:55:03.605Z,0.80
2023-01-19T13:57:40.026Z,1.10
2023-01-19T14:00:11.839Z,1.00
2023-01-19T14:02:39.741Z,1.08
2023-01-19T14:05:37.584Z,1.00
2023-01-19T14:08:13.316Z,0.90
2023-01-19T14:10:42.270Z,0.95
2023-01-19T14:13:19.790Z,1.10
2023-01-19T14:15:48.895Z,0.90
2023-01-19T14:18:18.373Z,0.80
2023-01-19T14:21:00.987Z,1.00
2023-01-19T14:23:47.810Z,1.10
2023-01-19T14:26:41.856Z,0.90
2023-01-19T14:29:23.829Z,0.85
2023-01-19T14:32:05.477Z,1.15
2023-01-19T14:34:39.317Z,0.88
2023-01-19T14:37:18.639Z,0.90
2023-01-19T14:39:50.720Z,1.02
2023-01-19T14:42:22.119Z,0.90
2023-01-19T14:44:51.405Z,0.82
2023-01-19T14:47:27.781Z,0.80
2023-01-19T14:49:56.364Z,1.00
2023-01-19T14:52:33.764Z,1.00
2023-01-19T14:55:03.764Z,0.90
2023-01-19T14:57:30.301Z,1.10
2023-01-19T14:59:56.810Z,0.82
2023-01-19T15:02:23.515Z,1.00
2023-01-19T15:04:53.874Z,0.80
2023-01-19T15:07:23.701Z,0.90
2023-01-19T15:09:50.681Z,1.00
2023-01-19T15:12:18.437Z,0.90
2023-01-19T15:14:45.826Z,0.88
2023-01-19T15:17:26.682Z,1.00
2023-01-19T15:19:54.722Z,1.05
2023-01-19T15:22:25.048Z,0.90
2023-01-19T15:24:51.685Z,1.00
2023-01-19T15:27:18.298Z,0.88
2023-01-19T15:29:46.033Z,1.00
2023-01-19T15:32:14.204Z,0.80
2023-01-19T15:34:41.491Z,0.98
2023-01-19T15:37:08.415Z,0.98
2023-01-19T15:39:35.214Z,1.05
2023-01-19T15:42:01.966Z,1.05
2023-01-19T15:44:29.275Z,0.90
2023-01-19T15:46:57.385Z,1.00
2023-01-19T15:49:23.880Z,1.05
2023-01-19T15:51:50.434Z,1.00
2023-01-19T15:54:18.505Z,1.00
2023-01-19T15:56:45.028Z,1.17
2023-01-19T15:59:11.532Z,0.75
2023-01-19T16:01:40.047Z,0.93
2023-01-19T16:04:07.947Z,1.10
2023-01-19T16:06:34.629Z,0.85
2023-01-19T16:09:01.614Z,0.90
2023-01-19T16:11:33.651Z,1.00
2023-01-19T16:14:00.941Z,0.80
2023-01-19T16:16:28.267Z,0.98
2023-01-19T16:18:55.375Z,1.00
2023-01-19T16:21:22.500Z,1.10
2023-01-19T16:23:49.008Z,1.20
2023-01-19T16:26:34.404Z,0.93
2023-01-19T16:29:07.903Z,1.10
2023-01-19T16:31:34.897Z,0.95
2023-01-19T16:34:01.808Z,1.10
2023-01-19T16:36:30.639Z,1.00
2023-01-19T16:39:02.677Z,1.13
2023-01-19T16:41:29.403Z,1.00
2023-01-19T16:43:57.676Z,1.13
2023-01-19T16:46:26.727Z,1.00
2023-01-19T16:48:58.235Z,0.98
2023-01-19T16:51:24.955Z,0.95
2023-01-19T16:53:51.527Z,1.10
2023-01-19T16:56:18.219Z,1.30
2023-01-19T16:58:45.118Z,1.05
2023-01-19T17:01:19.803Z,1.10
2023-01-19T17:03:46.960Z,1.00
2023-01-19T17:06:15.621Z,0.93
2023-01-19T17:08:42.162Z,1.10
2023-01-19T17:11:14.395Z,1.08
2023-01-19T17:13:41.072Z,1.30
2023-01-19T17:16:07.996Z,1.08
2023-01-19T17:18:35.857Z,1.10
2023-01-19T17:21:08.475Z,1.17
2023-01-19T17:23:42.182Z,1.15
2023-01-19T17:26:08.907Z,1.00
2023-01-19T17:28:35.458Z,1.10
2023-01-19T17:31:12.310Z,1.17
2023-01-19T17:33:39.634Z,1.05
2023-01-19T17:36:09.060Z,1.10
2023-01-19T17:38:36.367Z,0.93
2023-01-19T17:41:11.279Z,1.00
2023-01-19T17:43:37.815Z,1.30
2023-01-19T17:46:04.553Z,1.20
2023-01-19T17:48:31.002Z,1.05
2023-01-19T17:51:05.679Z,1.27
2023-01-19T17:53:33.346Z,1.10
2023-01-19T17:56:11.871Z,0.90
2023-01-19T17:58:39.618Z,1.13
2023-01-19T18:01:10.458Z,1.25
2023-01-19T18:03:37.369Z,1.20
2023-01-19T18:06:04.043Z,1.42
2023-01-19T18:08:30.708Z,1.20
2023-01-19T18:10:58.865Z,1.10
2023-01-19T18:13:26.200Z,1.00
2023-01-19T18:15:57.874Z,1.10
2023-01-19T18:18:24.407Z,1.10
2023-01-19T18:20:50.933Z,1.17
2023-01-19T18:23:17.479Z,1.10
2023-01-19T18:25:43.961Z,1.33
2023-01-19T18:28:10.603Z,1.05
2023-01-19T18:30:40.250Z,1.02
2023-01-19T18:33:06.746Z,1.38
2023-01-19T18:35:33.329Z,1.60
2023-01-19T18:37:59.748Z,1.20
2023-01-19T18:40:26.470Z,1.17
2023-01-19T18:42:52.972Z,1.13
2023-01-19T18:45:19.420Z,1.20
2023-01-19T18:47:45.933Z,1.35
2023-01-19T18:50:14.281Z,1.10
2023-01-19T18:52:40.952Z,1.13
2023-01-19T18:55:08.081Z,1.02
2023-01-19T18:57:35.682Z,1.30
2023-01-19T19:00:03.544Z,1.20
2023-01-19T19:02:30.162Z,1.30
2023-01-19T19:04:56.607Z,1.27
2023-01-19T19:07:23.114Z,1.30
2023-01-19T19:09:49.614Z,1.23
2023-01-19T19:12:16.193Z,1.15
2023-01-19T19:14:42.738Z,1.30
2023-01-19T19:17:09.196Z,1.30
2023-01-19T19:19:35.820Z,1.35
2023-01-19T19:22:02.281Z,1.50
2023-01-19T19:24:28.897Z,1.65
2023-01-19T19:26:55.671Z,1.40
2023-01-19T19:29:22.242Z,1.25
2023-01-19T19:31:48.736Z,1.33
2023-01-19T19:34:15.285Z,1.27
2023-01-19T19:36:42.113Z,1.38
2023-01-19T19:39:08.680Z,1.30
2023-01-19T19:41:37.236Z,1.42
2023-01-19T19:44:03.758Z,1.08
2023-01-19T19:46:30.576Z,1.30
2023-01-19T19:48:57.254Z,1.27
2023-01-19T19:51:27.151Z,1.35
2023-01-19T19:53:58.951Z,1.38
2023-01-19T19:56:27.938Z,1.60
2023-01-19T19:58:55.775Z,1.50
2023-01-19T20:01:27.305Z,1.10
2023-01-19T20:03:56.068Z,1.42
2023-01-19T20:06:25.505Z,1.40
2023-01-19T20:08:54.308Z,1.30
2023-01-19T20:11:28.071Z,1.30
2023-01-19T20:13:54.726Z,1.38
2023-01-19T20:16:23.222Z,1.27
2023-01-19T20:18:54.003Z,1.50
2023-01-19T20:21:26.563Z,1.40
2023-01-19T20:23:54.308Z,1.42
2023-01-19T20:26:25.190Z,1.30
2023-01-19T20:28:52.272Z,1.10
2023-01-19T20:31:22.019Z,1.30
2023-01-19T20:33:50.715Z,1.20
2023-01-19T20:36:18.033Z,1.30
2023-01-19T20:38:44.778Z,1.35
2023-01-19T20:41:12.715Z,1.38
2023-01-19T20:43:39.667Z,1.20
2023-01-19T20:46:06.419Z,1.50
2023-01-19T20:48:33.240Z,1.30
2023-01-19T20:51:01.707Z,1.40
2023-01-19T20:53:29.289Z,1.05
2023-01-19T20:55:55.786Z,1.30
2023-01-19T20:58:23.384Z,1.30
2023-01-19T21:00:50.543Z,1.27
2023-01-19T21:03:17.265Z,1.10
2023-01-19T21:05:46.994Z,1.40
2023-01-19T21:08:14.768Z,1.40
2023-01-19T21:10:42.301Z,1.30
2023-01-19T21:13:09.130Z,1.08
2023-01-19T21:15:35.613Z,1.30
2023-01-19T21:18:02.436Z,1.10
2023-01-19T21:20:32.951Z,1.30
2023-01-19T21:22:59.469Z,1.60
2023-01-19T21:25:25.939Z,1.40
2023-01-19T21:27:52.492Z,1.50
2023-01-19T21:30:19.088Z,1.33
2023-01-19T21:32:45.734Z,1.58
2023-01-19T21:35:12.491Z,1.30
2023-01-19T21:37:39.175Z,1.50
2023-01-19T21:40:06.449Z,1.02
2023-01-19T21:42:32.898Z,1.42
2023-01-19T21:44:59.359Z,1.40
2023-01-19T21:47:25.857Z,1.30
2023-01-19T21:49:52.357Z,1.20
2023-01-19T21:52:18.909Z,1.40
2023-01-19T21:54:45.381Z,1.48
2023-01-19T21:57:15.076Z,1.65
2023-01-19T21:59:41.676Z,1.10
2023-01-19T22:02:11.175Z,1.48
2023-01-19T22:04:37.864Z,1.23
2023-01-19T22:07:04.413Z,1.17
2023-01-19T22:09:34.186Z,1.50
2023-01-19T22:12:01.416Z,1.30
2023-01-19T22:14:28.049Z,1.40
2023-01-19T22:16:54.735Z,1.38
2023-01-19T22:19:21.303Z,1.17
2023-01-19T22:21:47.878Z,1.40
2023-01-19T22:24:14.370Z,1.40
2023-01-19T22:26:40.857Z,1.30
2023-01-19T22:29:11.271Z,1.50
2023-01-19T22:31:39.040Z,1.52
2023-01-19T22:34:10.129Z,1.20
2023-01-19T22:36:37.627Z,1.30
2023-01-19T22:39:13.669Z,1.35
2023-01-19T22:41:43.425Z,1.45
2023-01-19T22:44:13.808Z,1.55
2023-01-19T22:46:40.433Z,1.58
2023-01-19T22:49:08.611Z,1.50
2023-01-19T22:51:36.034Z,1.40
2023-01-19T22:54:03.128Z,1.20
2023-01-19T22:56:31.711Z,1.30
2023-01-19T22:58:58.957Z,1.40
2023-01-19T23:01:28.656Z,1.40
2023-01-19T23:03:55.474Z,1.25
2023-01-19T23:06:27.867Z,1.30
2023-01-19T23:08:56.387Z,1.50
2023-01-19T23:11:25.968Z,1.73
2023-01-19T23:13:52.915Z,1.45
2023-01-19T23:16:20.249Z,1.33
2023-01-19T23:18:47.571Z,1.83
2023-01-19T23:21:17.378Z,1.30
2023-01-19T23:23:44.673Z,1.42
2023-01-19T23:26:19.730Z,1.63
2023-01-19T23:28:47.305Z,1.38
2023-01-19T23:31:31.359Z,1.50
2023-01-19T23:34:09.119Z,1.48
2023-01-19T23:36:37.449Z,1.50
2023-01-19T23:39:19.029Z,1.45
2023-01-19T23:41:46.043Z,1.10
2023-01-19T23:44:13.337Z,1.30
2023-01-19T23:46:40.130Z,1.60
2023-01-19T23:49:06.698Z,1.83
2023-01-19T23:51:33.950Z,1.80
2023-01-19T23:54:01.027Z,1.65
2023-01-19T23:56:31.006Z,1.80
2023-01-19T23:59:01.085Z,1.38
